»·PEaware :: N344HU KSMX-KBFL

N344HU :: KSMX-KBFL

FLIGHT INFORMATION

Flight Status: Arrived
Operator: Privately registered:
United States
More flights under this callsign
Pilot: Edward H. (2712)
Aircraft: CESSNA 172 SKYHAWK
(C172)
More flights by this aircraft type
Origin: KSMX Santa Maria Pub/Capt Hancock
United States
Destination: KBFL Meadows
United States
More flights between these airports :: More routes between these airports
Route: +
File this flight plan on PilotEdge
Remarks: nffe CAT5
Altitude:
(Current/Filed)
0ft
Speed:
(Current/Filed)
0kts
Departed: 23-Apr-18 08:48 AM
Arrived: 23-Apr-18 09:39 AM
Distance/Time
Traveled:
76nm/0:51
Distance/Time
To Go:
Arrived

Flight Plot

Page will automatically refresh every two minutes.


Map Options




Map Legend


Flown Route
Filed Route
Departure Airport
Arrival Airport
Navaid (VOR, NDB)
Fix

Horizontal Profiles

Position Reports

Time Latitude Longitude Heading Altitude Ground
Speed
23-Apr-18 08:42 34.896803 -120.446102 274 265ft 4kts
23-Apr-18 08:43 34.895773 -120.446824 136 265ft 6kts
23-Apr-18 08:44 34.893647 -120.445373 178 265ft 0kts
23-Apr-18 08:45 34.893647 -120.445373 178 265ft 0kts
23-Apr-18 08:46 34.892909 -120.445925 314 265ft 7kts
23-Apr-18 08:47 34.904602 -120.460602 309 664ft 75kts
23-Apr-18 08:48 34.920031 -120.467883 346 1266ft 71kts
23-Apr-18 08:49 34.940089 -120.472952 342 1898ft 76kts
23-Apr-18 08:50 34.960781 -120.474309 6 2534ft 77kts
23-Apr-18 08:51 34.980577 -120.478407 48 3073ft 84kts
23-Apr-18 08:52 34.989131 -120.454846 59 3716ft 74kts
23-Apr-18 08:53 34.999812 -120.432268 59 4224ft 80kts
23-Apr-18 08:54 35.008228 -120.405451 68 4605ft 97kts
23-Apr-18 08:55 35.018421 -120.373577 68 4590ft 102kts
23-Apr-18 08:56 35.028763 -120.341142 68 4590ft 105kts
23-Apr-18 08:57 35.039524 -120.307148 68 4590ft 109kts
23-Apr-18 08:58 35.051145 -120.277534 62 5157ft 89kts
23-Apr-18 08:59 35.061723 -120.249881 62 5578ft 91kts
23-Apr-18 09:00 35.073830 -120.220341 69 5733ft 105kts
23-Apr-18 09:01 35.084562 -120.188537 65 5733ft 106kts
23-Apr-18 09:02 35.098372 -120.155031 60 5731ft 113kts
23-Apr-18 09:03 35.113226 -120.124438 57 5731ft 114kts
23-Apr-18 09:04 35.131470 -120.091746 54 5368ft 124kts
23-Apr-18 09:05 35.149399 -120.062139 52 5364ft 97kts
23-Apr-18 09:06 35.162385 -120.036993 68 5419ft 97kts
23-Apr-18 09:07 35.170544 -120.003724 75 5454ft 111kts
23-Apr-18 09:08 35.178725 -119.968701 72 5454ft 112kts
23-Apr-18 09:09 35.188094 -119.933626 70 5454ft 112kts
23-Apr-18 09:10 35.197521 -119.897532 71 5454ft 112kts
23-Apr-18 09:11 35.207460 -119.861428 70 5454ft 112kts
23-Apr-18 09:12 35.217581 -119.825196 70 5454ft 112kts
23-Apr-18 09:13 35.227696 -119.789232 70 5454ft 112kts
23-Apr-18 09:14 35.237868 -119.753087 70 5454ft 112kts
23-Apr-18 09:15 35.247929 -119.717310 70 5454ft 112kts
23-Apr-18 09:16 35.257798 -119.682192 70 5454ft 110kts
23-Apr-18 09:17 35.267615 -119.647182 70 5454ft 110kts
23-Apr-18 09:18 35.277771 -119.612129 69 5454ft 110kts
23-Apr-18 09:19 35.288154 -119.576965 70 5454ft 110kts
23-Apr-18 09:20 35.298045 -119.541642 71 5343ft 118kts
23-Apr-18 09:21 35.307348 -119.498074 79 4053ft 147kts
23-Apr-18 09:22 35.319687 -119.457657 62 3380ft 103kts
23-Apr-18 09:23 35.329383 -119.428855 69 3382ft 82kts
23-Apr-18 09:24 35.337681 -119.399995 70 3144ft 108kts
23-Apr-18 09:25 35.346521 -119.365395 67 3086ft 85kts
23-Apr-18 09:26 35.354712 -119.338446 70 2995ft 94kts
23-Apr-18 09:27 35.363784 -119.303141 76 2550ft 123kts
23-Apr-18 09:28 35.372899 -119.264686 66 2320ft 112kts
23-Apr-18 09:29 35.382183 -119.230828 71 2321ft 105kts
23-Apr-18 09:30 35.392283 -119.198497 63 2319ft 104kts
23-Apr-18 09:31 35.401872 -119.166921 69 2321ft 104kts
23-Apr-18 09:32 35.414210 -119.135483 64 1940ft 108kts
23-Apr-18 09:33 35.424093 -119.104306 69 1657ft 110kts
23-Apr-18 09:34 35.421133 -119.074596 131 1530ft 106kts
23-Apr-18 09:35 35.400909 -119.051397 137 1399ft 108kts
23-Apr-18 09:36 35.405018 -119.033327 24 1150ft 69kts
23-Apr-18 09:37 35.421184 -119.041625 319 820ft 69kts
23-Apr-18 09:38 35.433495 -119.055807 312 510ft 37kts
23-Apr-18 09:39 35.436304 -119.057712 69 510ft 0kts
23-Apr-18 09:40 35.434672 -119.054404 61 510ft 17kts
23-Apr-18 09:41 35.434769 -119.053246 324 510ft 0kts
23-Apr-18 09:42 35.434769 -119.053246 324 510ft 0kts
23-Apr-18 09:43 35.434769 -119.053246 324 510ft 0kts
23-Apr-18 09:44 35.434769 -119.053246 324 510ft 0kts
23-Apr-18 09:45 35.434769 -119.053246 324 510ft 0kts
23-Apr-18 09:46 35.434769 -119.053246 324 510ft 0kts
23-Apr-18 09:47 35.434769 -119.053246 324 510ft 0kts
23-Apr-18 09:48 35.434769 -119.053246 324 510ft 0kts
23-Apr-18 09:49 35.434769 -119.053246 324 510ft 0kts
23-Apr-18 09:50 35.434769 -119.053246 324 510ft 0kts
23-Apr-18 09:51 35.434769 -119.053246 324 510ft 0kts
23-Apr-18 09:52 35.434769 -119.053246 324 510ft 0kts

Navigation Log

Ident Type
Flight plan parsing failed, navigation log unavailable